createdAt,value
2023-01-28T00:01:35.556Z,100.00
2023-01-28T00:06:37.779Z,100.00
2023-01-28T00:11:39.452Z,100.00
2023-01-28T00:16:41.132Z,100.00
2023-01-28T00:21:43.125Z,100.00
2023-01-28T00:26:45.061Z,100.00
2023-01-28T00:31:46.819Z,100.00
2023-01-28T00:36:57.314Z,100.00
2023-01-28T00:41:58.996Z,100.00
2023-01-28T00:47:00.997Z,100.00
2023-01-28T00:52:03.014Z,100.00
2023-01-28T00:57:04.765Z,100.00
2023-01-28T01:02:12.599Z,100.00
2023-01-28T01:07:14.450Z,100.00
2023-01-28T01:12:16.133Z,100.00
2023-01-28T01:17:18.259Z,100.00
2023-01-28T01:22:19.873Z,100.00
2023-01-28T01:27:21.637Z,100.00
2023-01-28T01:32:23.385Z,100.00
2023-01-28T01:37:25.399Z,100.00
2023-01-28T01:42:27.048Z,100.00
2023-01-28T01:47:55.141Z,100.00
2023-01-28T01:53:06.975Z,100.00
2023-01-28T01:58:13.571Z,100.00
2023-01-28T02:03:20.015Z,100.00
2023-01-28T02:08:21.996Z,100.00
2023-01-28T02:13:29.202Z,100.00
2023-01-28T02:18:33.850Z,100.00
2023-01-28T02:24:13.118Z,100.00
2023-01-28T02:29:26.499Z,100.00
2023-01-28T02:34:40.894Z,100.00
2023-01-28T02:39:48.277Z,100.00
2023-01-28T02:44:50.296Z,100.00
2023-01-28T02:49:56.422Z,100.00
2023-01-28T02:55:13.517Z,100.00
2023-01-28T03:00:23.009Z,100.00
2023-01-28T03:06:02.971Z,100.00
2023-01-28T03:11:23.713Z,100.00
2023-01-28T03:16:43.834Z,100.00
2023-01-28T03:22:05.049Z,100.00
2023-01-28T03:27:40.766Z,100.00
2023-01-28T03:33:04.781Z,100.00
2023-01-28T03:38:18.248Z,100.00
2023-01-28T03:43:20.656Z,100.00
2023-01-28T03:48:27.187Z,100.00
2023-01-28T03:53:29.040Z,100.00
2023-01-28T03:58:52.955Z,100.00
2023-01-28T04:03:55.085Z,100.00
2023-01-28T04:09:00.883Z,100.00
2023-01-28T04:14:16.826Z,100.00
2023-01-28T04:19:28.855Z,100.00
2023-01-28T04:24:31.866Z,100.00
2023-01-28T04:29:33.724Z,100.00
2023-01-28T04:34:53.170Z,100.00
2023-01-28T04:40:12.902Z,100.00
2023-01-28T04:45:28.399Z,100.00
2023-01-28T04:50:53.238Z,99.74
2023-01-28T04:56:15.146Z,98.08
2023-01-28T05:01:18.041Z,96.36
2023-01-28T05:06:20.082Z,97.91
2023-01-28T05:11:22.191Z,97.94
2023-01-28T05:16:28.956Z,97.97
2023-01-28T05:21:32.106Z,98.58
2023-01-28T05:26:37.720Z,99.71
2023-01-28T05:31:40.139Z,99.11
2023-01-28T05:36:42.171Z,95.60
2023-01-28T05:41:59.860Z,94.35
2023-01-28T05:47:02.083Z,95.13
2023-01-28T05:52:20.436Z,95.03
2023-01-28T05:57:22.612Z,93.84
2023-01-28T06:02:25.573Z,93.25
2023-01-28T06:07:30.721Z,94.37
2023-01-28T06:12:32.868Z,96.34
2023-01-28T06:17:57.304Z,93.47
2023-01-28T06:23:04.161Z,93.88
2023-01-28T06:28:05.961Z,93.52
2023-01-28T06:33:07.588Z,92.70
2023-01-28T06:38:09.517Z,92.81
2023-01-28T06:43:11.170Z,94.37
2023-01-28T06:48:12.865Z,96.42
2023-01-28T06:53:15.170Z,92.80
2023-01-28T06:58:17.023Z,90.98
2023-01-28T07:03:18.687Z,88.04
2023-01-28T07:08:20.483Z,87.68
2023-01-28T07:13:22.192Z,85.83
2023-01-28T07:18:24.131Z,85.44
2023-01-28T07:23:27.699Z,87.34
2023-01-28T07:28:30.827Z,87.30
2023-01-28T07:33:32.440Z,86.69
2023-01-28T07:38:34.060Z,87.38
2023-01-28T07:43:35.682Z,87.74
2023-01-28T07:48:37.367Z,85.76
2023-01-28T07:53:39.163Z,83.51
2023-01-28T07:58:40.788Z,79.82
2023-01-28T08:03:42.404Z,80.79
2023-01-28T08:08:44.014Z,80.10
2023-01-28T08:13:45.665Z,79.18
2023-01-28T08:18:47.265Z,78.01
2023-01-28T08:23:48.957Z,76.40
2023-01-28T08:28:51.601Z,78.40
2023-01-28T08:33:53.396Z,77.49
2023-01-28T08:38:55.302Z,77.41
2023-01-28T08:43:57.083Z,75.27
2023-01-28T08:48:58.760Z,75.15
2023-01-28T08:54:00.843Z,75.87
2023-01-28T08:59:02.492Z,75.64
2023-01-28T09:04:04.208Z,75.82
2023-01-28T09:09:05.916Z,73.49
2023-01-28T09:14:07.627Z,74.62
2023-01-28T09:19:10.907Z,75.05
2023-01-28T09:24:12.598Z,74.43
2023-01-28T09:29:14.309Z,74.27
2023-01-28T09:34:16.054Z,72.14
2023-01-28T09:39:17.772Z,73.49
2023-01-28T09:44:34.587Z,71.72
2023-01-28T09:49:48.410Z,72.43
2023-01-28T09:54:55.456Z,69.95
2023-01-28T09:59:57.591Z,72.68
2023-01-28T10:05:23.184Z,70.58
2023-01-28T10:10:46.537Z,70.28
2023-01-28T10:15:58.477Z,72.29
2023-01-28T10:21:11.147Z,71.05
2023-01-28T10:26:24.263Z,69.84
2023-01-28T10:31:36.751Z,71.27
2023-01-28T10:36:38.728Z,71.61
2023-01-28T10:41:55.711Z,72.30
2023-01-28T10:47:11.008Z,74.19
2023-01-28T10:52:14.703Z,74.24
2023-01-28T10:57:18.914Z,72.31
2023-01-28T11:02:32.638Z,74.07
2023-01-28T11:07:34.714Z,73.08
2023-01-28T11:12:36.412Z,72.17
2023-01-28T11:17:39.314Z,71.54
2023-01-28T11:22:45.215Z,69.83
2023-01-28T11:27:49.169Z,69.23
2023-01-28T11:33:22.487Z,70.97
2023-01-28T11:38:26.185Z,70.73
2023-01-28T11:43:30.294Z,71.59
2023-01-28T11:48:48.201Z,73.18
2023-01-28T11:54:02.645Z,73.17
2023-01-28T11:59:04.688Z,73.16
2023-01-28T12:04:15.314Z,71.99
2023-01-28T12:09:48.944Z,71.87
2023-01-28T12:14:59.935Z,70.24
2023-01-28T12:20:31.313Z,72.79
2023-01-28T12:25:52.135Z,69.90
2023-01-28T12:31:02.912Z,71.25
2023-01-28T12:36:13.594Z,71.32
2023-01-28T12:41:23.633Z,73.15
2023-01-28T12:46:47.117Z,71.32
2023-01-28T12:51:51.517Z,71.62
2023-01-28T12:56:55.631Z,71.64
2023-01-28T13:02:14.687Z,72.07
2023-01-28T13:07:34.931Z,71.99
2023-01-28T13:12:40.601Z,72.20
2023-01-28T13:17:54.619Z,72.79
2023-01-28T13:23:21.855Z,71.81
2023-01-28T13:28:33.471Z,70.99
2023-01-28T13:33:38.295Z,71.17
2023-01-28T13:38:40.270Z,71.32
2023-01-28T13:43:42.740Z,70.95
2023-01-28T13:48:52.304Z,70.32
2023-01-28T13:54:00.711Z,70.00
2023-01-28T13:59:02.265Z,72.29
2023-01-28T14:04:28.591Z,72.33
2023-01-28T14:09:30.242Z,71.74
2023-01-28T14:15:04.645Z,71.85
2023-01-28T14:20:20.542Z,71.58
2023-01-28T14:25:43.118Z,72.26
2023-01-28T14:30:55.957Z,73.98
2023-01-28T14:35:57.661Z,73.01
2023-01-28T14:40:59.366Z,72.72
2023-01-28T14:46:16.381Z,72.79
2023-01-28T14:51:35.814Z,74.24
2023-01-28T14:56:37.534Z,74.78
2023-01-28T15:01:44.809Z,74.86
2023-01-28T15:06:46.351Z,74.67
2023-01-28T15:11:52.218Z,76.13
2023-01-28T15:16:54.948Z,74.91
2023-01-28T15:22:05.634Z,74.70
2023-01-28T15:27:15.282Z,69.35
2023-01-28T15:32:27.577Z,68.42
2023-01-28T15:37:29.207Z,68.86
2023-01-28T15:42:31.842Z,69.20
2023-01-28T15:47:35.307Z,70.31
2023-01-28T15:52:40.713Z,67.83
2023-01-28T15:57:42.338Z,70.04
2023-01-28T16:02:47.168Z,69.20
2023-01-28T16:07:49.034Z,69.90
2023-01-28T16:12:53.199Z,70.39
2023-01-28T16:17:54.976Z,66.59
2023-01-28T16:23:02.483Z,66.22
2023-01-28T16:28:17.181Z,66.75
2023-01-28T16:33:21.975Z,68.56
2023-01-28T16:38:23.641Z,70.09
2023-01-28T16:43:25.258Z,70.23
2023-01-28T16:48:26.955Z,68.71
2023-01-28T16:53:33.560Z,69.08
2023-01-28T16:58:35.504Z,68.44
2023-01-28T17:03:37.674Z,65.91
2023-01-28T17:08:40.452Z,68.84
2023-01-28T17:13:42.029Z,69.50
2023-01-28T17:18:43.669Z,70.94
2023-01-28T17:23:45.518Z,70.72
2023-01-28T17:28:53.059Z,69.47
2023-01-28T17:33:56.354Z,70.84
2023-01-28T17:38:58.020Z,70.14
2023-01-28T17:43:59.876Z,70.61
2023-01-28T17:49:02.989Z,70.12
2023-01-28T17:54:04.911Z,68.97
2023-01-28T17:59:07.004Z,69.41
2023-01-28T18:04:10.175Z,69.67
2023-01-28T18:09:13.103Z,69.94
2023-01-28T18:14:19.433Z,69.07
2023-01-28T18:19:21.945Z,69.89
2023-01-28T18:24:25.227Z,69.26
2023-01-28T18:29:28.687Z,69.58
2023-01-28T18:34:31.629Z,71.16
2023-01-28T18:39:33.406Z,68.81
2023-01-28T18:44:35.184Z,69.48
2023-01-28T18:49:36.878Z,71.99
2023-01-28T18:54:38.645Z,70.79
2023-01-28T18:59:40.552Z,72.47
2023-01-28T19:04:42.936Z,75.17
2023-01-28T19:09:44.719Z,75.08
2023-01-28T19:14:47.517Z,75.10
2023-01-28T19:19:50.370Z,76.45
2023-01-28T19:24:52.796Z,74.30
2023-01-28T19:29:54.800Z,75.49
2023-01-28T19:34:56.488Z,73.12
2023-01-28T19:39:58.241Z,73.48
2023-01-28T19:45:01.422Z,74.91
2023-01-28T19:50:08.585Z,75.79
2023-01-28T19:55:10.606Z,76.63
2023-01-28T20:00:12.719Z,76.27
2023-01-28T20:05:15.224Z,76.66
2023-01-28T20:10:18.110Z,77.28
2023-01-28T20:15:19.791Z,76.96
2023-01-28T20:20:21.705Z,77.83
2023-01-28T20:25:23.358Z,78.92
2023-01-28T20:30:26.966Z,77.28
2023-01-28T20:35:28.631Z,77.86
2023-01-28T20:40:31.472Z,76.76
2023-01-28T20:45:36.059Z,77.97
2023-01-28T20:50:37.880Z,79.48
2023-01-28T20:55:39.651Z,78.21
2023-01-28T21:00:41.345Z,77.23
2023-01-28T21:05:47.507Z,78.96
2023-01-28T21:10:49.512Z,74.24
2023-01-28T21:15:53.318Z,74.12
2023-01-28T21:20:55.118Z,73.13
2023-01-28T21:26:01.834Z,71.24
2023-01-28T21:31:17.210Z,72.21
2023-01-28T21:36:43.410Z,72.51
2023-01-28T21:41:47.818Z,72.60
2023-01-28T21:46:49.905Z,72.11
2023-01-28T21:51:51.892Z,73.22
2023-01-28T21:56:53.702Z,71.91
2023-01-28T22:02:00.205Z,71.59
2023-01-28T22:07:05.901Z,71.33
2023-01-28T22:12:08.243Z,73.11
2023-01-28T22:17:11.770Z,72.34
2023-01-28T22:22:15.283Z,71.57
2023-01-28T22:27:16.956Z,71.76
2023-01-28T22:32:18.809Z,73.64
2023-01-28T22:37:20.512Z,73.07
2023-01-28T22:42:22.154Z,73.45
2023-01-28T22:47:23.882Z,75.14
2023-01-28T22:52:25.656Z,73.57
2023-01-28T22:57:27.345Z,73.21
2023-01-28T23:02:29.202Z,74.91
2023-01-28T23:07:31.113Z,75.08
2023-01-28T23:12:33.006Z,74.56
2023-01-28T23:17:53.131Z,74.52
2023-01-28T23:23:13.377Z,74.99
2023-01-28T23:28:15.688Z,74.87
2023-01-28T23:33:17.371Z,74.34
2023-01-28T23:38:19.057Z,75.09
2023-01-28T23:43:21.195Z,75.27
2023-01-28T23:48:22.849Z,75.34
2023-01-28T23:53:24.501Z,74.91
2023-01-28T23:58:42.184Z,74.36
